Erin, Canada
Current Conditions -  °F | °C
As of 1:00 AM on Wednesday 22 Oct 2014 (Local Time) from CYYZ Reporting Station
Overcast Overcast  
Wind Chill: 36°   Ceiling: 2700
Heat Index: 43°   Visibility: 15mi
Dew Point: 36°   Wind: 13mph
Humidity: 76%   Direction: 10°N
Pressure: 30.17"   Gusts: 21mph
Location:  43.77°N, 80.07°W
Report Text: CYYZ 220500Z 01011G18KT 15SM OVC027 06/02 A3017 RMK SC8 SLP221
Loading
Personal Weather Stations






























Interactive Weather Map
Tropical Storm Tracking
New forecast layout! Learn more

10-Day Weather Forecast

Advertisements
Track Severe Weather on mobile